Time;durP1;ratioP1;P1;durP2;ratioP2;P2;SDS_P1;SDS_P2;PMS_P1;PMS_P2;Temp;Humidity;BMP_temperature;BMP_pressure;BME280_temperature;BME280_humidity;BME280_pressure;Samples;Min_cycle;Max_cycle;Signal;HPM_P1;HPM_P2
2021/03/02 00:01:17;;;;;;;89.38;43.25;;;0.20;2201.60;;;;;;5067394;28;20028;-75
2021/03/02 00:03:42;;;;;;;79.05;36.33;;;0.20;2201.60;;;;;;5068132;28;20278;-73
2021/03/02 00:06:09;;;;;;;73.88;36.38;;;0.20;2201.60;;;;;;5064682;28;20028;-73
2021/03/02 00:08:38;;;;;;;71.55;36.22;;;0.10;2201.60;;;;;;5074536;28;20529;-73
2021/03/02 00:11:05;;;;;;;64.72;32.75;;;0.10;2201.60;;;;;;5077765;28;20152;-73
2021/03/02 00:13:32;;;;;;;63.72;33.60;;;0.10;2201.60;;;;;;5104263;28;20476;-73
2021/03/02 00:16:03;;;;;;;86.15;41.08;;;0.10;2201.60;;;;;;5103844;28;20107;-73
2021/03/02 00:18:35;;;;;;;85.85;40.47;;;0.10;2201.60;;;;;;5092875;28;20366;-74
2021/03/02 00:21:12;;;;;;;81.22;38.58;;;0.10;2201.60;;;;;;5091730;28;20027;-73
2021/03/02 00:23:40;;;;;;;89.88;39.28;;;0.10;2201.60;;;;;;5091759;28;20407;-73
2021/03/02 00:26:07;;;;;;;76.93;35.58;;;0.10;2201.60;;;;;;5104160;28;20165;-74
2021/03/02 00:28:35;;;;;;;83.05;39.88;;;0.00;2201.60;;;;;;5092245;28;20035;-74
2021/03/02 00:31:01;;;;;;;85.97;41.05;;;12.90;2201.60;;;;;;5093181;28;20046;-73
2021/03/02 00:33:28;;;;;;;87.93;41.35;;;12.90;2201.60;;;;;;5099873;28;20024;-73
2021/03/02 00:35:54;;;;;;;85.80;40.58;;;12.90;2201.60;;;;;;5092929;28;20031;-73
2021/03/02 00:38:20;;;;;;;87.70;40.95;;;12.90;2201.60;;;;;;5093548;28;20024;-73
2021/03/02 00:40:46;;;;;;;85.70;40.08;;;12.90;2201.60;;;;;;5092674;28;20032;-73
2021/03/02 00:43:12;;;;;;;80.70;38.53;;;12.90;2201.60;;;;;;5093492;28;20052;-73
2021/03/02 00:45:38;;;;;;;76.07;37.65;;;12.90;2201.60;;;;;;5093376;28;20085;-77
2021/03/02 00:48:04;;;;;;;80.28;39.05;;;13.00;2201.60;;;;;;5092834;28;20035;-73
2021/03/02 00:50:30;;;;;;;96.32;43.58;;;13.00;2201.60;;;;;;5093198;28;20385;-75
2021/03/02 00:52:55;;;;;;;101.75;44.50;;;13.00;2201.60;;;;;;5092853;28;20027;-73
2021/03/02 00:55:22;;;;;;;106.18;46.95;;;13.00;2201.60;;;;;;5093261;28;20020;-74
2021/03/02 00:57:48;;;;;;;87.15;43.03;;;13.00;2201.60;;;;;;5092830;28;20099;-74
2021/03/02 01:00:14;;;;;;;96.18;43.70;;;13.00;2201.60;;;;;;5085034;28;20115;-74
2021/03/02 01:02:40;;;;;;;89.80;42.60;;;13.00;2201.60;;;;;;5092583;28;20020;-73
2021/03/02 01:05:07;;;;;;;81.35;39.60;;;13.00;2201.60;;;;;;5091374;28;20027;-74
2021/03/02 01:07:34;;;;;;;89.38;41.70;;;13.00;2201.60;;;;;;5092802;28;20412;-74
2021/03/02 01:10:00;;;;;;;120.68;52.70;;;13.10;2201.60;;;;;;5081273;28;20451;-73
2021/03/02 01:12:28;;;;;;;137.60;63.92;;;13.10;2201.60;;;;;;5092886;28;20060;-74
2021/03/02 01:14:56;;;;;;;135.32;62.28;;;13.20;2201.60;;;;;;5083337;28;20016;-73
2021/03/02 01:17:22;;;;;;;136.65;60.10;;;13.30;2201.60;;;;;;5080925;28;20021;-73
2021/03/02 01:19:47;;;;;;;117.22;55.72;;;13.40;2201.60;;;;;;5075215;28;20028;-76
2021/03/02 01:22:13;;;;;;;109.38;50.88;;;13.40;2201.60;;;;;;5077018;28;20036;-73
2021/03/02 01:24:39;;;;;;;106.32;48.92;;;13.40;2201.60;;;;;;5088095;28;20548;-73
2021/03/02 01:27:05;;;;;;;97.10;47.83;;;13.40;2201.60;;;;;;5092595;28;20032;-75
2021/03/02 01:29:31;;;;;;;109.13;50.28;;;13.50;2201.60;;;;;;5092580;28;20036;-74
2021/03/02 01:31:56;;;;;;;106.50;50.97;;;13.50;2201.60;;;;;;5092685;28;20020;-73
2021/03/02 01:34:22;;;;;;;100.53;50.20;;;13.50;2201.60;;;;;;5092349;28;20069;-74
2021/03/02 01:36:48;;;;;;;106.63;52.67;;;13.50;2201.60;;;;;;5091974;28;20082;-76
2021/03/02 01:39:14;;;;;;;103.20;48.60;;;13.60;2201.60;;;;;;5091926;28;20078;-74
2021/03/02 01:41:44;;;;;;;110.18;52.28;;;13.60;2201.60;;;;;;5091716;28;20484;-73
2021/03/02 01:44:09;;;;;;;119.70;53.97;;;13.60;2201.60;;;;;;5092472;28;20024;-73
2021/03/02 01:46:35;;;;;;;113.82;53.50;;;13.60;2201.60;;;;;;5091853;28;20388;-74
2021/03/02 01:49:01;;;;;;;101.60;50.25;;;13.70;2201.60;;;;;;5091955;28;20054;-73
2021/03/02 01:51:26;;;;;;;119.90;58.10;;;13.70;2201.60;;;;;;5091738;28;20484;-74
2021/03/02 01:53:52;;;;;;;113.00;53.80;;;38.40;2201.60;;;;;;5092103;28;20020;-74
2021/03/02 01:56:18;;;;;;;115.45;54.13;;;38.40;2201.60;;;;;;5091650;28;20024;-76
2021/03/02 01:58:43;;;;;;;116.38;54.60;;;38.40;2201.60;;;;;;5091665;28;20032;-76
2021/03/02 02:01:09;;;;;;;107.50;51.78;;;38.40;2201.60;;;;;;5092181;28;20069;-74
2021/03/02 02:03:46;;;;;;;107.57;50.03;;;38.40;2201.60;;;;;;5091939;28;20035;-74
2021/03/02 02:06:18;;;;;;;110.07;50.15;;;38.40;2201.60;;;;;;5091864;28;20119;-72
2021/03/02 02:09:05;;;;;;;102.88;47.95;;;38.40;2201.60;;;;;;5091175;28;20506;-73
2021/03/02 02:12:05;;;;;;;93.45;43.92;;;13.70;2201.60;;;;;;5082633;28;20085;-73
2021/03/02 02:14:58;;;;;;;98.53;45.15;;;13.60;2201.60;;;;;;5088189;28;20116;-76
2021/03/02 02:17:49;;;;;;;94.93;43.10;;;13.60;2201.60;;;;;;5082854;28;20031;-71
2021/03/02 02:20:43;;;;;;;95.22;44.40;;;13.60;2201.60;;;;;;5081577;28;20119;-73
2021/03/02 02:23:18;;;;;;;90.32;42.70;;;13.60;2201.60;;;;;;5067744;28;20040;-73
2021/03/02 02:25:48;;;;;;;96.05;44.63;;;13.60;2201.60;;;;;;5073052;28;20028;-72
2021/03/02 02:28:17;;;;;;;91.75;43.42;;;13.60;2201.60;;;;;;5091635;28;20027;-73
2021/03/02 02:30:45;;;;;;;89.53;43.58;;;13.70;2201.60;;;;;;5090755;28;20036;-73
2021/03/02 02:33:13;;;;;;;89.65;43.65;;;13.70;2201.60;;;;;;5091725;28;20016;-73
2021/03/02 02:35:42;;;;;;;97.07;47.15;;;13.70;2201.60;;;;;;5091388;28;20121;-72
2021/03/02 02:38:09;;;;;;;93.30;45.03;;;13.70;2201.60;;;;;;5091222;28;20073;-73
2021/03/02 02:40:37;;;;;;;90.07;43.63;;;38.40;2201.60;;;;;;5091225;28;20388;-73
2021/03/02 02:43:04;;;;;;;91.95;45.55;;;38.40;2201.60;;;;;;5091034;28;20048;-73
2021/03/02 02:45:30;;;;;;;91.70;44.08;;;38.40;2201.60;;;;;;5091008;28;20370;-72
2021/03/02 02:47:56;;;;;;;90.78;43.80;;;38.40;2201.60;;;;;;5091387;28;20028;-72
2021/03/02 02:50:24;;;;;;;95.88;45.33;;;38.50;2201.60;;;;;;5090739;28;20028;-74
2021/03/02 02:52:51;;;;;;;137.02;54.88;;;38.50;2201.60;;;;;;5090863;28;20020;-73
2021/03/02 02:55:19;;;;;;;174.05;68.55;;;38.50;2201.60;;;;;;5091135;28;20020;-73
2021/03/02 02:57:50;;;;;;;178.38;67.05;;;38.50;2201.60;;;;;;5090935;28;20564;-73
2021/03/02 03:00:19;;;;;;;83.13;40.63;;;38.50;2201.60;;;;;;5090239;28;20036;-73
2021/03/02 03:02:48;;;;;;;90.82;41.95;;;38.50;2201.60;;;;;;5091313;28;20036;-73
2021/03/02 03:05:17;;;;;;;89.13;43.77;;;38.60;2201.60;;;;;;5091123;28;20028;-73
2021/03/02 03:07:57;;;;;;;83.45;40.30;;;38.80;2201.60;;;;;;5081722;28;20123;-74
2021/03/02 03:10:29;;;;;;;81.35;37.53;;;38.80;2201.60;;;;;;5090101;28;20032;-72
2021/03/02 03:13:03;;;;;;;77.43;38.35;;;38.80;2201.60;;;;;;5090442;28;20434;-72
2021/03/02 03:15:30;;;;;;;80.03;39.42;;;38.90;2201.60;;;;;;5090538;28;20077;-73
2021/03/02 03:17:58;;;;;;;78.88;38.13;;;39.00;2201.60;;;;;;5091353;28;20515;-73
2021/03/02 03:20:26;;;;;;;72.90;36.38;;;39.00;2201.60;;;;;;5091241;28;20508;-74
2021/03/02 03:22:55;;;;;;;67.88;34.40;;;39.10;2201.60;;;;;;5073859;28;20043;-73
2021/03/02 03:25:21;;;;;;;58.40;28.05;;;39.20;2201.60;;;;;;5090745;28;20549;-72
2021/03/02 03:27:52;;;;;;;59.30;29.50;;;39.20;2201.60;;;;;;5089956;28;20032;-73
2021/03/02 03:30:19;;;;;;;72.60;35.75;;;39.20;2201.60;;;;;;5090512;28;20024;-72
2021/03/02 03:32:47;;;;;;;120.65;45.25;;;39.30;2201.60;;;;;;5089927;28;20111;-74
2021/03/02 03:35:13;;;;;;;115.13;46.15;;;64.00;2201.60;;;;;;5090736;28;20180;-75
2021/03/02 03:37:40;;;;;;;88.63;40.75;;;64.00;2201.60;;;;;;5090043;28;20503;-73
2021/03/02 03:40:06;;;;;;;91.13;43.10;;;64.00;2201.60;;;;;;5090613;28;20158;-74
2021/03/02 03:42:32;;;;;;;96.20;42.42;;;64.00;2201.60;;;;;;5090366;28;20040;-73
2021/03/02 03:44:58;;;;;;;87.88;40.83;;;64.00;2201.60;;;;;;5090359;28;20024;-74
2021/03/02 03:47:23;;;;;;;86.40;41.10;;;64.00;2201.60;;;;;;5090054;28;20036;-73
2021/03/02 03:49:49;;;;;;;79.20;39.30;;;64.10;2201.60;;;;;;5090094;28;20047;-72
2021/03/02 03:52:17;;;;;;;118.28;45.78;;;64.00;2201.60;;;;;;5093458;28;20023;-73
2021/03/02 03:54:45;;;;;;;94.43;41.58;;;64.00;2201.60;;;;;;5089467;28;20016;-72
2021/03/02 03:57:11;;;;;;;96.25;41.25;;;39.30;2201.60;;;;;;5090147;28;20684;-73
2021/03/02 03:59:39;;;;;;;129.25;52.05;;;39.30;2201.60;;;;;;5080432;28;20477;-72
2021/03/02 04:02:06;;;;;;;103.38;45.25;;;39.30;2201.60;;;;;;5090811;28;20020;-73
2021/03/02 04:04:33;;;;;;;101.25;45.15;;;39.30;2201.60;;;;;;5103183;28;20076;-73
2021/03/02 04:06:59;;;;;;;70.57;33.83;;;64.00;2201.60;;;;;;5088119;28;20043;-72
2021/03/02 04:09:26;;;;;;;65.40;32.40;;;64.00;2201.60;;;;;;5087183;28;20027;-72
2021/03/02 04:11:53;;;;;;;65.20;31.88;;;64.00;2201.60;;;;;;5093876;28;20016;-72
2021/03/02 04:14:19;;;;;;;79.90;36.25;;;64.00;2201.60;;;;;;5090039;28;20036;-72
2021/03/02 04:16:45;;;;;;;63.60;31.13;;;64.00;2201.60;;;;;;5094167;28;20476;-74
2021/03/02 04:19:10;;;;;;;64.05;32.00;;;39.30;2201.60;;;;;;5093211;28;20016;-72
2021/03/02 04:21:36;;;;;;;64.03;31.27;;;39.30;2201.60;;;;;;5086360;28;20036;-73
2021/03/02 04:24:02;;;;;;;68.88;31.08;;;39.30;2201.60;;;;;;5084172;28;20029;-72
2021/03/02 04:26:28;;;;;;;57.55;28.95;;;39.30;2201.60;;;;;;5093715;28;20360;-72
2021/03/02 04:28:53;;;;;;;65.60;32.83;;;39.30;2201.60;;;;;;5093120;28;20096;-72
2021/03/02 04:31:19;;;;;;;69.22;32.88;;;39.20;2201.60;;;;;;5093715;28;20201;-73
2021/03/02 04:33:45;;;;;;;81.25;38.08;;;39.20;2201.60;;;;;;5092896;28;20024;-74
2021/03/02 04:36:11;;;;;;;77.13;38.08;;;39.10;2201.60;;;;;;5093610;28;20096;-73
2021/03/02 04:38:37;;;;;;;68.47;34.45;;;39.10;2201.60;;;;;;5092777;28;20103;-72
2021/03/02 04:41:02;;;;;;;60.78;29.95;;;39.10;2201.60;;;;;;5093743;28;20034;-73
2021/03/02 04:43:28;;;;;;;65.88;32.45;;;39.20;2201.60;;;;;;5093481;28;20073;-73
2021/03/02 04:45:54;;;;;;;67.78;34.22;;;39.20;2201.60;;;;;;5093517;28;20408;-73
2021/03/02 04:48:20;;;;;;;56.05;28.63;;;39.20;2201.60;;;;;;5093072;28;20052;-74
2021/03/02 04:50:45;;;;;;;50.20;26.35;;;39.20;2201.60;;;;;;5092892;28;20034;-73
2021/03/02 04:53:11;;;;;;;57.22;27.40;;;39.30;2201.60;;;;;;5093105;28;20012;-74
2021/03/02 04:55:37;;;;;;;53.88;28.50;;;39.30;2201.60;;;;;;5093007;28;20024;-72
2021/03/02 04:58:03;;;;;;;50.72;26.70;;;39.30;2201.60;;;;;;5093145;28;20066;-73
2021/03/02 05:00:28;;;;;;;49.20;26.70;;;39.30;2201.60;;;;;;5074291;28;20028;-72
2021/03/02 05:02:54;;;;;;;56.05;26.20;;;39.30;2201.60;;;;;;5093053;28;20032;-73
2021/03/02 05:05:20;;;;;;;56.17;26.48;;;39.30;2201.60;;;;;;5092632;28;20025;-73
2021/03/02 05:07:45;;;;;;;61.00;28.98;;;39.20;2201.60;;;;;;5092991;28;20401;-74
2021/03/02 05:10:12;;;;;;;54.97;28.95;;;39.20;2201.60;;;;;;5081788;28;20154;-73
2021/03/02 05:12:38;;;;;;;57.17;29.98;;;39.10;2201.60;;;;;;5088666;28;20027;-74
2021/03/02 05:15:05;;;;;;;55.65;29.50;;;39.00;2201.60;;;;;;5088659;28;20028;-76
2021/03/02 05:17:30;;;;;;;64.53;29.00;;;39.00;2201.60;;;;;;5092782;28;20380;-75
2021/03/02 05:19:56;;;;;;;58.65;29.63;;;39.10;2201.60;;;;;;5092067;28;20369;-73
2021/03/02 05:22:22;;;;;;;64.68;30.90;;;39.10;2201.60;;;;;;5078555;28;20478;-73
2021/03/02 05:24:47;;;;;;;69.53;35.08;;;39.00;2201.60;;;;;;5089750;28;20024;-73
2021/03/02 05:27:13;;;;;;;68.22;35.70;;;39.00;2201.60;;;;;;5092625;28;20028;-74
2021/03/02 05:29:39;;;;;;;66.88;36.75;;;38.80;2201.60;;;;;;5091880;28;20027;-74
2021/03/02 05:32:05;;;;;;;63.50;35.35;;;38.60;2201.60;;;;;;5092482;28;20500;-73
2021/03/02 05:34:31;;;;;;;57.95;32.55;;;38.40;2201.60;;;;;;5092388;28;20027;-73
2021/03/02 05:36:57;;;;;;;58.97;29.92;;;13.70;2201.60;;;;;;5092085;28;20024;-73
2021/03/02 05:39:23;;;;;;;57.58;31.17;;;13.60;2201.60;;;;;;5092103;28;20020;-74
2021/03/02 05:41:50;;;;;;;51.08;27.08;;;13.50;2201.60;;;;;;5092041;28;20044;-77
2021/03/02 05:44:16;;;;;;;45.92;25.15;;;13.30;2201.60;;;;;;5092561;28;20020;-73
2021/03/02 05:46:43;;;;;;;41.40;23.05;;;13.10;2201.60;;;;;;5092126;28;20027;-73
2021/03/02 05:49:13;;;;;;;44.78;24.50;;;0.00;2201.60;;;;;;5092146;28;20107;-73
2021/03/02 05:51:40;;;;;;;43.75;24.83;;;0.30;2201.60;;;;;;5091576;28;20028;-74
2021/03/02 05:54:07;;;;;;;45.78;23.48;;;0.40;2201.60;;;;;;5092361;28;20112;-74
2021/03/02 05:56:37;;;;;;;39.80;22.88;;;0.70;2201.60;;;;;;5091674;28;20024;-74
2021/03/02 05:59:03;;;;;;;38.92;21.17;;;25.60;2201.60;;;;;;5092006;28;20099;-74
2021/03/02 06:01:29;;;;;;;37.95;20.92;;;26.40;2201.60;;;;;;5101727;28;20038;-74
2021/03/02 06:03:54;;;;;;;38.85;21.63;;;51.20;2227.20;;;;;;5084286;28;20340;-73
2021/03/02 06:06:20;;;;;;;36.65;20.83;;;51.40;2227.20;;;;;;5088112;28;20035;-74
2021/03/02 06:08:46;;;;;;;36.60;21.55;;;51.50;2227.20;;;;;;5085454;28;20483;-72
2021/03/02 06:11:32;;;;;;;39.40;20.65;;;51.60;2227.20;;;;;;5098006;28;20568;-73
2021/03/02 06:14:22;;;;;;;44.70;22.98;;;51.80;2227.20;;;;;;5104522;28;20016;-73
2021/03/02 06:16:49;;;;;;;52.45;27.50;;;51.90;2227.20;;;;;;5102056;28;20467;-72
2021/03/02 06:19:15;;;;;;;40.85;22.60;;;76.90;2227.20;;;;;;5107943;28;20376;-73
2021/03/02 06:21:42;;;;;;;41.83;24.42;;;77.20;2176.00;;;;;;5092922;28;20020;-73
2021/03/02 06:24:09;;;;;;;43.80;24.13;;;77.60;2150.40;;;;;;5097924;28;20028;-72
2021/03/02 06:26:37;;;;;;;43.42;23.92;;;102.40;2099.20;;;;;;5108655;28;20391;-74
2021/03/02 06:29:14;;;;;;;44.42;25.60;;;102.60;2048.00;;;;;;5091998;28;20495;-72
2021/03/02 06:31:41;;;;;;;56.50;30.92;;;102.60;2048.00;;;;;;5087967;28;20036;-72
2021/03/02 06:34:12;;;;;;;44.92;23.42;;;102.90;2048.00;;;;;;5107872;28;20028;-72
2021/03/02 06:36:40;;;;;;;41.15;23.42;;;103.20;1945.60;;;;;;5089669;28;20122;-73
2021/03/02 06:39:30;;;;;;;44.25;24.85;;;128.10;1945.60;;;;;;5108879;28;20023;-72
2021/03/02 06:42:20;;;;;;;53.65;25.33;;;128.40;1945.60;;;;;;5103364;28;20375;-72
2021/03/02 06:44:51;;;;;;;47.65;24.15;;;128.50;1920.00;;;;;;5104265;28;20039;-73
2021/03/02 06:47:30;;;;;;;39.70;24.00;;;128.80;1894.40;;;;;;5101034;28;20016;-72
2021/03/02 06:49:56;;;;;;;45.35;25.45;;;153.90;1843.20;;;;;;5083716;28;20435;-73
2021/03/02 06:52:22;;;;;;;42.63;25.85;;;205.10;1664.00;;;;;;5095072;28;20019;-73
2021/03/02 06:54:50;;;;;;;55.90;28.25;;;281.80;1433.60;;;;;;5094190;28;20043;-73
2021/03/02 06:57:22;;;;;;;44.97;25.27;;;333.20;1280.00;;;;;;5084558;28;20026;-74
2021/03/02 07:00:00;;;;;;;46.28;25.63;;;384.60;1152.00;;;;;;5087151;28;20108;-74
2021/03/02 07:02:46;;;;;;;40.35;25.17;;;435.70;1049.60;;;;;;5084683;28;20028;-73
2021/03/02 07:05:14;;;;;;;49.90;30.90;;;486.50;972.80;;;;;;5080114;28;20032;-74
2021/03/02 07:07:41;;;;;;;44.85;30.50;;;512.00;921.60;;;;;;5083801;28;20047;-74
2021/03/02 07:10:11;;;;;;;48.08;31.60;;;537.90;896.00;;;;;;5082331;28;20024;-74
2021/03/02 07:12:38;;;;;;;43.28;30.80;;;563.60;870.40;;;;;;5085657;28;20027;-73
2021/03/02 07:15:06;;;;;;;51.38;32.63;;;589.10;819.20;;;;;;5093293;28;20446;-73
2021/03/02 07:17:33;;;;;;;50.95;34.78;;;614.80;768.00;;;;;;5093660;28;20406;-76
2021/03/02 07:20:02;;;;;;;49.08;33.85;;;614.80;768.00;;;;;;5085507;28;20103;-74
2021/03/02 07:22:31;;;;;;;48.88;34.55;;;615.30;742.40;;;;;;5082132;28;20089;-75
2021/03/02 07:25:00;;;;;;;55.72;36.33;;;665.90;742.40;;;;;;5087324;28;20093;-74
2021/03/02 07:27:27;;;;;;;44.00;31.25;;;666.20;742.40;;;;;;5081232;28;20012;-76
2021/03/02 07:29:54;;;;;;;53.33;39.40;;;691.50;716.80;;;;;;5093367;28;20036;-80
2021/03/02 07:32:20;;;;;;;46.08;32.75;;;717.20;691.20;;;;;;5102394;28;20008;-75
2021/03/02 07:34:47;;;;;;;46.75;34.72;;;742.80;691.20;;;;;;5107126;28;20422;-73
2021/03/02 07:37:22;;;;;;;42.72;33.35;;;768.60;665.60;;;;;;5110221;28;20507;-74
2021/03/02 07:40:07;;;;;;;39.42;31.17;;;794.10;640.00;;;;;;5101259;28;20102;-74
2021/03/02 07:42:33;;;;;;;41.40;31.15;;;819.20;640.00;;;;;;5112729;28;20031;-72
2021/03/02 07:45:17;;;;;;;41.08;31.27;;;819.90;614.40;;;;;;5103277;28;20047;-75
2021/03/02 07:47:50;;;;;;;37.92;29.42;;;844.90;640.00;;;;;;5113358;28;20380;-74
2021/03/02 07:50:18;;;;;;;37.83;31.55;;;870.70;588.80;;;;;;5109556;28;20023;-75
2021/03/02 07:52:44;;;;;;;42.55;31.63;;;870.90;588.80;;;;;;5114395;28;20016;-74
2021/03/02 07:55:18;;;;;;;43.70;33.88;;;871.00;588.80;;;;;;5109428;28;20546;-77
2021/03/02 07:57:44;;;;;;;43.53;35.00;;;896.80;537.60;;;;;;5102368;28;20063;-74
2021/03/02 08:00:21;;;;;;;38.58;31.00;;;921.90;563.20;;;;;;5103504;28;20016;-78
2021/03/02 08:03:24;;;;;;;39.28;32.28;;;922.40;537.60;;;;;;5110184;28;20028;-73
2021/03/02 08:05:59;;;;;;;36.42;31.38;;;947.80;512.00;;;;;;5088372;28;20477;-74
2021/03/02 08:08:25;;;;;;;38.47;32.30;;;948.00;512.00;;;;;;5087434;28;20032;-73
2021/03/02 08:10:52;;;;;;;38.53;32.40;;;973.20;512.00;;;;;;5086375;28;20026;-74
2021/03/02 08:13:36;;;;;;;38.17;32.83;;;922.50;537.60;;;;;;5096523;28;20031;-74
2021/03/02 08:16:03;;;;;;;45.13;37.35;;;948.10;512.00;;;;;;5097193;28;20042;-77
2021/03/02 08:18:37;;;;;;;49.47;36.45;;;973.00;537.60;;;;;;5104939;28;20030;-71
2021/03/02 08:21:16;;;;;;;43.55;34.53;;;948.10;512.00;;;;;;5102122;28;20127;-72
2021/03/02 08:23:51;;;;;;;48.70;37.15;;;973.60;512.00;;;;;;5105811;28;20019;-76
2021/03/02 08:26:33;;;;;;;48.95;37.42;;;948.00;537.60;;;;;;5111116;28;20028;-73
2021/03/02 08:29:05;;;;;;;46.13;36.63;;;948.10;512.00;;;;;;5110695;28;20026;-79
2021/03/02 08:31:32;;;;;;;48.20;37.33;;;973.70;512.00;;;;;;5100165;28;20024;-76
2021/03/02 08:34:03;;;;;;;41.72;35.13;;;973.70;512.00;;;;;;5107999;28;20030;-79
2021/03/02 08:36:29;;;;;;;41.75;35.55;;;999.20;512.00;;;;;;5110212;28;20028;-75
2021/03/02 08:38:55;;;;;;;44.05;35.83;;;1024.60;486.40;;;;;;5111896;28;20100;-75
2021/03/02 08:41:32;;;;;;;45.50;37.28;;;973.70;537.60;;;;;;5109566;28;20816;-75
2021/03/02 08:43:59;;;;;;;44.95;37.30;;;973.30;537.60;;;;;;5079816;28;20028;-74
2021/03/02 08:46:32;;;;;;;44.55;36.83;;;922.50;563.20;;;;;;5107381;28;20034;-73
2021/03/02 08:48:57;;;;;;;44.33;35.85;;;972.90;537.60;;;;;;5103584;28;20029;-76
2021/03/02 08:51:25;;;;;;;44.63;37.20;;;973.60;512.00;;;;;;5112497;28;20036;-75
2021/03/02 08:53:52;;;;;;;39.15;34.03;;;999.10;512.00;;;;;;5109760;28;20020;-77
2021/03/02 08:56:24;;;;;;;48.33;34.53;;;1050.50;486.40;;;;;;5111984;28;20024;-76
2021/03/02 08:58:53;;;;;;;37.33;31.20;;;1075.90;486.40;;;;;;5097611;28;20472;-76
2021/03/02 09:01:21;;;;;;;40.58;29.63;;;1126.70;486.40;;;;;;5103980;28;20038;-74
2021/03/02 09:03:49;;;;;;;36.85;32.13;;;1152.20;460.80;;;;;;5105466;28;20379;-73
2021/03/02 09:06:22;;;;;;;34.45;29.55;;;1152.00;460.80;;;;;;5087913;28;20061;-75
2021/03/02 09:08:57;;;;;;;34.70;28.73;;;1100.80;512.00;;;;;;5100181;28;20031;-77
2021/03/02 09:11:31;;;;;;;32.80;27.35;;;1126.50;486.40;;;;;;5105775;28;20019;-76
2021/03/02 09:13:59;;;;;;;33.47;29.88;;;1152.50;460.80;;;;;;5104200;28;20137;-74
2021/03/02 09:16:34;;;;;;;30.92;26.80;;;1178.10;435.20;;;;;;5112662;28;20047;-76
2021/03/02 09:19:07;;;;;;;28.13;25.20;;;1203.30;460.80;;;;;;5107894;28;20464;-76
2021/03/02 09:21:36;;;;;;;26.23;21.08;;;1229.00;460.80;;;;;;5106103;28;20080;-75
2021/03/02 09:24:02;;;;;;;29.00;24.23;;;1229.20;460.80;;;;;;5095419;28;20103;-76
2021/03/02 09:26:29;;;;;;;27.08;23.13;;;1229.70;460.80;;;;;;5096024;28;20379;-74
2021/03/02 09:29:03;;;;;;;29.60;24.70;;;1254.80;486.40;;;;;;5099652;28;20024;-75
2021/03/02 09:31:30;;;;;;;30.38;26.20;;;1229.40;460.80;;;;;;5093782;28;20028;-73
2021/03/02 09:33:57;;;;;;;29.38;23.92;;;1229.40;460.80;;;;;;5088136;28;20013;-77
2021/03/02 09:36:25;;;;;;;32.67;27.13;;;1254.50;486.40;;;;;;5100318;28;20024;-76
2021/03/02 09:38:52;;;;;;;32.85;28.10;;;1254.60;486.40;;;;;;5096928;28;20016;-72
2021/03/02 09:41:38;;;;;;;35.08;30.17;;;1229.50;460.80;;;;;;5100209;28;20024;-74
2021/03/02 09:44:25;;;;;;;30.92;24.17;;;1229.00;460.80;;;;;;5089445;28;20028;-73
2021/03/02 09:46:56;;;;;;;30.75;24.50;;;1254.60;486.40;;;;;;5100975;28;20284;-71
2021/03/02 09:49:46;;;;;;;29.52;23.90;;;1254.60;486.40;;;;;;5078879;28;20362;-72
2021/03/02 09:52:32;;;;;;;;;;;1254.60;486.40;;;;;;5091629;28;20089;-74
2021/03/02 09:55:19;;;;;;;24.30;20.27;;;1254.80;486.40;;;;;;5085096;28;19926;-70
2021/03/02 09:57:51;;;;;;;21.17;18.25;;;1280.50;486.40;;;;;;5106027;28;20030;-68
2021/03/02 10:00:31;;;;;;;22.08;18.63;;;1280.50;486.40;;;;;;5090000;28;20029;-70
2021/03/02 10:03:06;;;;;;;22.60;18.92;;;1305.90;486.40;;;;;;5098667;28;20123;-72
2021/03/02 10:05:34;;;;;;;25.77;22.08;;;1306.30;486.40;;;;;;5088386;28;20412;-72
2021/03/02 10:08:15;;;;;;;20.95;18.70;;;1254.90;486.40;;;;;;5106941;28;20044;-72
2021/03/02 10:10:41;;;;;;;22.98;19.20;;;1280.90;486.40;;;;;;5095558;28;20032;-72
2021/03/02 10:13:07;;;;;;;21.90;17.90;;;1306.30;486.40;;;;;;5102614;28;20028;-72
2021/03/02 10:15:33;;;;;;;22.27;18.38;;;1306.00;486.40;;;;;;5099297;28;20484;-73
2021/03/02 10:18:19;;;;;;;21.00;18.55;;;1280.50;486.40;;;;;;5102580;28;20377;-74
2021/03/02 10:21:08;;;;;;;23.23;20.02;;;1255.30;486.40;;;;;;5099016;28;20404;-75
2021/03/02 10:23:39;;;;;;;22.35;19.58;;;1254.80;486.40;;;;;;5097989;28;20032;-71
2021/03/02 10:26:05;;;;;;;19.83;16.88;;;1229.70;460.80;;;;;;5088503;28;20044;-71
2021/03/02 10:28:32;;;;;;;23.98;19.02;;;1255.30;486.40;;;;;;5098383;28;20031;-71
2021/03/02 10:30:58;;;;;;;19.75;17.65;;;1280.00;486.40;;;;;;5099648;28;20032;-70
2021/03/02 10:33:24;;;;;;;22.48;19.67;;;1255.10;486.40;;;;;;5095089;28;20459;-77
2021/03/02 10:35:50;;;;;;;20.48;17.92;;;1255.00;486.40;;;;;;5098463;28;20048;-73
2021/03/02 10:38:15;;;;;;;22.30;19.40;;;1254.60;486.40;;;;;;5097019;28;20081;-71
2021/03/02 10:40:41;;;;;;;21.85;19.08;;;1229.70;460.80;;;;;;5086393;28;20039;-70
2021/03/02 10:43:07;;;;;;;21.98;18.85;;;1254.80;486.40;;;;;;5095707;28;20032;-71
2021/03/02 10:45:32;;;;;;;22.30;19.48;;;1280.40;486.40;;;;;;5095162;28;20039;-72
2021/03/02 10:47:58;;;;;;;21.35;18.67;;;1305.60;486.40;;;;;;5098542;28;20507;-72
2021/03/02 10:50:24;;;;;;;21.63;19.00;;;1255.30;486.40;;;;;;5099595;28;20063;-73
2021/03/02 10:52:49;;;;;;;23.10;18.95;;;1255.30;486.40;;;;;;5105690;28;20023;-72
2021/03/02 10:55:15;;;;;;;21.85;18.85;;;1254.40;486.40;;;;;;5096187;28;20499;-74
2021/03/02 10:57:41;;;;;;;19.52;16.35;;;1229.70;460.80;;;;;;5108064;28;20048;-73
2021/03/02 11:00:09;;;;;;;18.70;15.65;;;1280.20;486.40;;;;;;5099971;28;20043;-73
2021/03/02 11:02:34;;;;;;;14.13;11.70;;;1305.60;486.40;;;;;;5099590;28;20031;-74
2021/03/02 11:05:00;;;;;;;16.52;13.95;;;1305.60;486.40;;;;;;5089756;28;20023;-73
2021/03/02 11:07:26;;;;;;;15.00;13.10;;;1280.70;486.40;;;;;;5091588;28;20541;-76
2021/03/02 11:09:52;;;;;;;16.30;13.07;;;1255.30;486.40;;;;;;5107549;28;20054;-73
2021/03/02 11:12:17;;;;;;;13.85;12.20;;;1280.50;486.40;;;;;;5100529;28;20088;-73
2021/03/02 11:14:44;;;;;;;12.80;10.65;;;1229.70;460.80;;;;;;5083373;28;20021;-75
2021/03/02 11:17:10;;;;;;;13.82;10.90;;;1229.50;460.80;;;;;;5096755;28;20082;-73
2021/03/02 11:19:36;;;;;;;14.98;11.98;;;1254.60;486.40;;;;;;5096967;28;20464;-74
2021/03/02 11:22:01;;;;;;;21.35;14.65;;;1280.40;486.40;;;;;;5098632;28;20023;-73
2021/03/02 11:24:27;;;;;;;18.48;11.85;;;1305.60;486.40;;;;;;5105177;28;20024;-72
2021/03/02 11:26:53;;;;;;;15.70;11.90;;;1254.90;486.40;;;;;;5095237;28;20016;-72
2021/03/02 11:29:18;;;;;;;12.70;10.43;;;1229.00;460.80;;;;;;5097221;28;20016;-74
2021/03/02 11:31:44;;;;;;;14.60;11.95;;;1203.80;435.20;;;;;;5083946;28;20107;-71
2021/03/02 11:34:10;;;;;;;12.40;10.27;;;1178.20;409.60;;;;;;5093142;28;20027;-73
2021/03/02 11:36:36;;;;;;;11.55;9.93;;;1178.30;409.60;;;;;;5098222;28;20069;-74
2021/03/02 11:39:03;;;;;;;11.30;9.70;;;1126.50;435.20;;;;;;5099785;28;20073;-73
2021/03/02 11:41:29;;;;;;;13.50;10.43;;;1126.80;435.20;;;;;;5099705;28;20137;-71
2021/03/02 11:43:54;;;;;;;14.32;11.07;;;1152.40;409.60;;;;;;5094446;28;20418;-72
2021/03/02 11:46:20;;;;;;;16.95;13.80;;;1152.70;409.60;;;;;;5086833;28;20511;-71
2021/03/02 11:48:46;;;;;;;19.33;14.82;;;1177.60;409.60;;;;;;5089022;28;20556;-78
2021/03/02 11:51:11;;;;;;;18.73;14.55;;;1177.60;409.60;;;;;;5093203;28;20115;-73
2021/03/02 11:53:37;;;;;;;19.80;14.30;;;1177.70;409.60;;;;;;5091475;28;20020;-74
2021/03/02 11:56:03;;;;;;;22.83;14.13;;;1177.80;409.60;;;;;;5102984;28;20483;-74
2021/03/02 11:58:29;;;;;;;23.48;16.50;;;1178.30;409.60;;;;;;5092060;28;20020;-72
2021/03/02 12:00:55;;;;;;;21.33;15.63;;;1178.10;409.60;;;;;;5091951;28;20522;-73
2021/03/02 12:03:22;;;;;;;13.98;11.65;;;1178.00;409.60;;;;;;5095623;28;20036;-73
2021/03/02 12:05:48;;;;;;;17.83;13.25;;;1127.30;435.20;;;;;;5090072;28;20239;-71
2021/03/02 12:08:14;;;;;;;16.90;11.75;;;1126.80;435.20;;;;;;5101924;28;20823;-72
2021/03/02 12:10:40;;;;;;;21.05;14.13;;;1126.90;435.20;;;;;;5099409;28;20028;-74
2021/03/02 12:13:06;;;;;;;18.80;13.85;;;1126.60;460.80;;;;;;5099888;28;20051;-79
2021/03/02 12:15:32;;;;;;;16.38;12.90;;;1152.00;435.20;;;;;;5085275;28;20042;-73